Time;durP1;ratioP1;P1;durP2;ratioP2;P2;SDS_P1;SDS_P2;PMS_P1;PMS_P2;Temp;Humidity;BMP_temperature;BMP_pressure;BME280_temperature;BME280_humidity;BME280_pressure;Samples;Min_cycle;Max_cycle;Signal;HPM_P1;HPM_P2
2022/07/22 00:01:06;;;;;;;4.95;2.70;;;;;;;;;;5144256;27;20038;-78
2022/07/22 00:03:32;;;;;;;7.32;3.08;;;;;;;;;;5124482;27;20068;-78
2022/07/22 00:05:57;;;;;;;4.90;2.50;;;;;;;;;;5141294;27;20042;-78
2022/07/22 00:08:23;;;;;;;9.52;3.95;;;;;;;;;;5139193;27;20450;-78
2022/07/22 00:10:49;;;;;;;6.40;2.53;;;;;;;;;;5136708;27;20042;-77
2022/07/22 00:13:14;;;;;;;2.97;2.60;;;;;;;;;;5134234;27;20046;-77
2022/07/22 00:15:40;;;;;;;5.38;2.53;;;;;;;;;;5137432;27;20612;-77
2022/07/22 00:18:05;;;;;;;4.10;2.40;;;;;;;;;;5137794;27;20460;-78
2022/07/22 00:20:31;;;;;;;7.78;2.60;;;;;;;;;;5155633;27;20046;-77
2022/07/22 00:22:57;;;;;;;7.13;2.20;;;;;;;;;;5138228;27;20373;-77
2022/07/22 00:25:23;;;;;;;11.50;3.67;;;;;;;;;;5138231;27;20412;-77
2022/07/22 00:27:48;;;;;;;3.25;2.08;;;;;;;;;;5164972;27;20056;-78
2022/07/22 00:30:15;;;;;;;4.28;2.03;;;;;;;;;;5146962;27;20033;-78
2022/07/22 00:32:41;;;;;;;4.55;2.25;;;;;;;;;;5163798;27;20125;-78
2022/07/22 00:35:07;;;;;;;5.85;1.95;;;;;;;;;;5161819;27;20090;-78
2022/07/22 00:37:33;;;;;;;2.95;1.73;;;;;;;;;;5156666;27;20476;-78
2022/07/22 00:39:58;;;;;;;7.18;2.10;;;;;;;;;;5155350;27;20071;-78
2022/07/22 00:42:24;;;;;;;8.13;2.00;;;;;;;;;;5137966;27;20404;-77
2022/07/22 00:44:49;;;;;;;2.88;1.60;;;;;;;;;;5155996;27;20125;-77
2022/07/22 00:47:18;;;;;;;4.63;1.38;;;;;;;;;;5124128;27;20083;-78
2022/07/22 00:49:45;;;;;;;2.47;1.60;;;;;;;;;;5116824;27;20039;-77
2022/07/22 00:52:10;;;;;;;4.30;1.60;;;;;;;;;;5134604;27;20046;-77
2022/07/22 00:54:37;;;;;;;1.60;1.48;;;;;;;;;;5133772;27;20027;-77
2022/07/22 00:57:03;;;;;;;3.58;1.30;;;;;;;;;;5133750;27;20043;-77
2022/07/22 00:59:28;;;;;;;3.78;1.80;;;;;;;;;;5116763;27;20040;-77
2022/07/22 01:01:54;;;;;;;2.33;1.40;;;;;;;;;;5119315;27;20038;-77
2022/07/22 01:04:19;;;;;;;2.85;1.42;;;;;;;;;;5096328;28;20469;-77
2022/07/22 01:06:45;;;;;;;3.95;1.40;;;;;;;;;;5113131;28;20435;-77
2022/07/22 01:09:12;;;;;;;3.17;1.42;;;;;;;;;;5113107;28;20043;-77
2022/07/22 01:11:39;;;;;;;2.83;1.70;;;;;;;;;;5096556;28;20036;-77
2022/07/22 01:14:04;;;;;;;2.05;1.60;;;;;;;;;;5096528;28;20031;-77
2022/07/22 01:16:31;;;;;;;3.80;1.67;;;;;;;;;;5101576;27;20038;-77
2022/07/22 01:18:56;;;;;;;4.38;1.52;;;;;;;;;;5133769;27;20110;-76
2022/07/22 01:21:22;;;;;;;4.32;1.65;;;;;;;;;;5115988;28;20161;-77
2022/07/22 01:23:48;;;;;;;4.13;1.40;;;;;;;;;;5133179;27;20486;-77
2022/07/22 01:26:14;;;;;;;2.45;1.48;;;;;;;;;;5116516;27;20027;-77
2022/07/22 01:28:41;;;;;;;3.78;1.65;;;;;;;;;;5116558;27;20042;-76
2022/07/22 01:31:06;;;;;;;2.13;1.55;;;;;;;;;;5133042;27;20038;-77
2022/07/22 01:33:33;;;;;;;3.15;1.45;;;;;;;;;;5116253;27;20051;-76
2022/07/22 01:36:00;;;;;;;3.53;1.30;;;;;;;;;;5133292;27;20484;-77
2022/07/22 01:38:26;;;;;;;2.30;1.33;;;;;;;;;;5116425;27;20035;-76
2022/07/22 01:40:51;;;;;;;3.13;1.40;;;;;;;;;;5115811;27;20103;-77
2022/07/22 01:43:17;;;;;;;2.53;1.05;;;;;;;;;;5132922;27;20027;-77
2022/07/22 01:45:45;;;;;;;1.33;1.20;;;;;;;;;;5115692;27;20088;-77
2022/07/22 01:48:10;;;;;;;2.65;1.42;;;;;;;;;;5110221;28;20023;-76
2022/07/22 01:50:36;;;;;;;3.78;1.38;;;;;;;;;;5133373;27;20529;-77
2022/07/22 01:53:02;;;;;;;7.20;2.20;;;;;;;;;;5133397;27;20050;-76
2022/07/22 01:55:28;;;;;;;4.07;1.50;;;;;;;;;;5115859;27;20027;-77
2022/07/22 01:57:53;;;;;;;1.50;1.23;;;;;;;;;;5133306;27;20031;-77
2022/07/22 02:00:25;;;;;;;6.38;1.70;;;;;;;;;;5116524;27;20114;-77
2022/07/22 02:02:51;;;;;;;4.40;1.50;;;;;;;;;;5115738;28;20119;-77
2022/07/22 02:05:16;;;;;;;4.05;1.25;;;;;;;;;;5115608;28;20069;-77
2022/07/22 02:07:42;;;;;;;3.83;1.48;;;;;;;;;;5115672;28;20083;-77
2022/07/22 02:10:08;;;;;;;1.48;1.02;;;;;;;;;;5132941;28;20089;-76
2022/07/22 02:12:34;;;;;;;5.35;1.40;;;;;;;;;;5115651;28;20034;-76
2022/07/22 02:15:01;;;;;;;2.70;1.50;;;;;;;;;;5115609;28;20059;-76
2022/07/22 02:17:27;;;;;;;3.40;1.50;;;;;;;;;;5132302;28;20065;-76
2022/07/22 02:19:53;;;;;;;5.18;1.30;;;;;;;;;;5132742;27;20073;-77
2022/07/22 02:22:18;;;;;;;2.72;1.25;;;;;;;;;;5115704;28;20038;-75
2022/07/22 02:24:46;;;;;;;2.05;1.30;;;;;;;;;;5132691;27;20042;-76
2022/07/22 02:27:14;;;;;;;1.52;0.85;;;;;;;;;;5132393;28;20035;-76
2022/07/22 02:29:41;;;;;;;2.15;1.10;;;;;;;;;;5115758;28;20369;-76
2022/07/22 02:32:06;;;;;;;2.20;1.30;;;;;;;;;;5114947;28;20607;-76
2022/07/22 02:34:32;;;;;;;1.52;1.27;;;;;;;;;;5135362;27;20031;-76
2022/07/22 02:36:57;;;;;;;1.35;1.20;;;;;;;;;;5136981;27;20041;-75
2022/07/22 02:39:23;;;;;;;5.05;1.42;;;;;;;;;;5119447;27;20118;-77
2022/07/22 02:41:48;;;;;;;2.15;1.20;;;;;;;;;;5122037;27;20411;-79
2022/07/22 02:44:13;;;;;;;3.25;1.00;;;;;;;;;;5122517;27;20042;-78
2022/07/22 02:46:39;;;;;;;2.75;0.77;;;;;;;;;;5137340;27;20041;-78
2022/07/22 02:49:12;;;;;;;1.95;1.10;;;;;;;;;;5135322;27;20084;-76
2022/07/22 02:51:38;;;;;;;3.10;1.00;;;;;;;;;;5118305;27;20032;-77
2022/07/22 02:54:05;;;;;;;2.67;0.90;;;;;;;;;;5137212;27;20092;-78
2022/07/22 02:56:31;;;;;;;2.90;0.60;;;;;;;;;;5120336;27;20475;-77
2022/07/22 02:58:57;;;;;;;1.92;0.70;;;;;;;;;;5136426;27;20028;-77
2022/07/22 03:01:23;;;;;;;1.52;0.70;;;;;;;;;;5118430;27;20031;-77
2022/07/22 03:03:53;;;;;;;5.43;0.70;;;;;;;;;;5120098;27;20039;-77
2022/07/22 03:06:21;;;;;;;1.40;0.70;;;;;;;;;;5119235;27;20027;-77
2022/07/22 03:09:04;;;;;;;1.80;0.70;;;;;;;;;;5136178;27;20054;-78
2022/07/22 03:11:31;;;;;;;1.45;0.50;;;;;;;;;;5136035;27;20046;-77
2022/07/22 03:13:56;;;;;;;2.03;0.52;;;;;;;;;;5136341;27;20135;-77
2022/07/22 03:16:22;;;;;;;2.13;0.45;;;;;;;;;;5118786;27;20521;-78
2022/07/22 03:18:48;;;;;;;2.22;0.63;;;;;;;;;;5135893;27;20091;-77
2022/07/22 03:21:13;;;;;;;6.28;0.60;;;;;;;;;;5135384;27;20073;-77
2022/07/22 03:23:39;;;;;;;3.20;0.40;;;;;;;;;;5136038;27;20035;-78
2022/07/22 03:26:04;;;;;;;1.95;0.68;;;;;;;;;;5137499;27;20085;-78
2022/07/22 03:28:30;;;;;;;0.70;0.70;;;;;;;;;;5137393;27;20083;-78
2022/07/22 03:30:55;;;;;;;0.70;0.30;;;;;;;;;;5138497;27;20046;-79
2022/07/22 03:33:21;;;;;;;1.13;0.20;;;;;;;;;;5121638;27;20030;-80
2022/07/22 03:35:47;;;;;;;24.13;0.95;;;;;;;;;;5121911;27;20027;-79
2022/07/22 03:38:13;;;;;;;1.08;0.47;;;;;;;;;;5122505;27;20034;-79
2022/07/22 03:40:38;;;;;;;0.57;0.30;;;;;;;;;;5122800;27;20031;-79
2022/07/22 03:43:05;;;;;;;4.57;0.43;;;;;;;;;;5138593;27;20095;-78
2022/07/22 03:45:31;;;;;;;2.50;0.30;;;;;;;;;;5136287;27;20034;-78
2022/07/22 03:48:00;;;;;;;3.90;0.35;;;;;;;;;;5137357;27;20031;-78
2022/07/22 03:50:28;;;;;;;0.85;0.32;;;;;;;;;;5104020;28;20055;-78
2022/07/22 03:52:54;;;;;;;1.58;0.40;;;;;;;;;;5115282;28;20484;-77
2022/07/22 03:55:20;;;;;;;0.63;0.32;;;;;;;;;;5116128;28;20039;-77
2022/07/22 03:57:49;;;;;;;3.25;0.30;;;;;;;;;;5115342;28;20122;-79
2022/07/22 04:00:23;;;;;;;0.20;0.20;;;;;;;;;;5100691;28;20023;-78
2022/07/22 04:02:49;;;;;;;1.45;0.43;;;;;;;;;;5116422;28;20052;-78
2022/07/22 04:05:20;;;;;;;1.35;0.52;;;;;;;;;;5100237;28;20055;-79
2022/07/22 04:07:47;;;;;;;2.15;0.60;;;;;;;;;;5099134;28;20028;-78
2022/07/22 04:10:13;;;;;;;3.42;0.80;;;;;;;;;;5098276;28;20036;-78
2022/07/22 04:12:42;;;;;;;3.40;0.80;;;;;;;;;;5099789;28;20083;-80
2022/07/22 04:15:16;;;;;;;2.97;0.80;;;;;;;;;;5102923;27;20126;-78
2022/07/22 04:17:42;;;;;;;0.80;0.80;;;;;;;;;;5140582;27;20411;-78
2022/07/22 04:20:08;;;;;;;1.08;0.77;;;;;;;;;;5139904;27;20031;-77
2022/07/22 04:22:52;;;;;;;3.00;1.05;;;;;;;;;;5157348;27;20125;-77
2022/07/22 04:25:17;;;;;;;3.58;1.15;;;;;;;;;;5155198;27;20113;-78
2022/07/22 04:27:43;;;;;;;2.95;1.00;;;;;;;;;;5155666;27;20045;-78
2022/07/22 04:30:09;;;;;;;3.28;0.93;;;;;;;;;;5155107;27;20034;-78
2022/07/22 04:32:37;;;;;;;3.00;1.23;;;;;;;;;;5138285;27;20079;-78
2022/07/22 04:35:04;;;;;;;1.30;1.00;;;;;;;;;;5155659;27;20034;-78
2022/07/22 04:37:30;;;;;;;2.47;1.08;;;;;;;;;;5121301;27;20023;-78
2022/07/22 04:39:57;;;;;;;2.63;1.50;;;;;;;;;;5116086;27;20035;-78
2022/07/22 04:42:22;;;;;;;5.43;1.52;;;;;;;;;;5118305;27;20033;-79
2022/07/22 04:44:49;;;;;;;2.83;1.60;;;;;;;;;;5118670;27;20038;-77
2022/07/22 04:47:15;;;;;;;3.47;1.40;;;;;;;;;;5119650;27;20031;-79
2022/07/22 04:49:41;;;;;;;2.38;1.60;;;;;;;;;;5118592;27;20079;-80
2022/07/22 04:52:09;;;;;;;4.03;1.85;;;;;;;;;;5138926;27;20404;-79
2022/07/22 04:54:41;;;;;;;4.40;1.83;;;;;;;;;;5116769;27;20038;-77
2022/07/22 04:57:06;;;;;;;4.13;1.65;;;;;;;;;;5133419;27;20031;-77
2022/07/22 04:59:32;;;;;;;5.63;2.05;;;;;;;;;;5117301;27;20035;-77
2022/07/22 05:01:57;;;;;;;2.22;1.60;;;;;;;;;;5116744;27;20034;-77
2022/07/22 05:04:23;;;;;;;4.78;2.20;;;;;;;;;;5132275;27;20027;-78
2022/07/22 05:06:50;;;;;;;4.30;1.92;;;;;;;;;;5117548;27;20476;-77
2022/07/22 05:09:16;;;;;;;3.95;2.00;;;;;;;;;;5133645;27;20038;-77
2022/07/22 05:11:41;;;;;;;5.97;2.83;;;;;;;;;;5115254;27;20671;-77
2022/07/22 05:14:07;;;;;;;6.13;3.08;;;;;;;;;;5116167;27;20031;-77
2022/07/22 05:16:32;;;;;;;3.97;2.83;;;;;;;;;;5124537;27;20027;-79
2022/07/22 05:18:58;;;;;;;4.35;3.22;;;;;;;;;;5117511;28;20039;-77
2022/07/22 05:21:32;;;;;;;4.85;3.00;;;;;;;;;;5095648;28;20073;-76
2022/07/22 05:24:00;;;;;;;4.95;2.75;;;;;;;;;;5094335;28;20036;-76
2022/07/22 05:26:28;;;;;;;3.85;2.83;;;;;;;;;;5112713;28;20080;-77
2022/07/22 05:28:54;;;;;;;3.70;2.55;;;;;;;;;;5112459;28;20032;-77
2022/07/22 05:31:20;;;;;;;4.15;2.75;;;;;;;;;;5094921;28;20034;-76
2022/07/22 05:33:45;;;;;;;4.28;2.85;;;;;;;;;;5112884;28;20039;-76
2022/07/22 05:36:26;;;;;;;2.50;2.30;;;;;;;;;;5112339;28;20035;-77
2022/07/22 05:38:54;;;;;;;9.13;2.53;;;;;;;;;;5112339;28;20043;-76
2022/07/22 05:41:19;;;;;;;2.85;2.38;;;;;;;;;;5113692;28;20489;-77
2022/07/22 05:43:44;;;;;;;3.38;2.38;;;;;;;;;;5112553;28;20035;-76
2022/07/22 05:46:10;;;;;;;3.33;2.10;;;;;;;;;;5121419;27;20035;-76
2022/07/22 05:48:36;;;;;;;2.90;2.03;;;;;;;;;;5133726;27;20051;-76
2022/07/22 05:51:01;;;;;;;6.38;2.10;;;;;;;;;;5131147;27;20037;-76
2022/07/22 05:53:29;;;;;;;2.38;2.08;;;;;;;;;;5132561;27;20034;-76
2022/07/22 05:55:54;;;;;;;2.55;2.03;;;;;;;;;;5133060;27;20476;-76
2022/07/22 05:58:20;;;;;;;6.68;2.22;;;;;;;;;;5116002;27;20023;-76
2022/07/22 06:00:46;;;;;;;3.97;1.98;;;;;;;;;;5132745;27;20035;-76
2022/07/22 06:03:12;;;;;;;4.35;1.63;;;;;;;;;;5132995;27;20027;-76
2022/07/22 06:05:37;;;;;;;4.20;2.30;;;;;;;;;;5115766;27;20046;-76
2022/07/22 06:08:05;;;;;;;1.95;1.63;;;;;;;;;;5118288;27;20027;-76
2022/07/22 06:10:39;;;;;;;3.40;1.70;;;;;;;;;;5124058;27;20031;-76
2022/07/22 06:13:05;;;;;;;6.97;1.98;;;;;;;;;;5122758;27;20037;-77
2022/07/22 06:15:30;;;;;;;3.10;1.75;;;;;;;;;;5140638;27;20023;-77
2022/07/22 06:17:56;;;;;;;3.63;1.65;;;;;;;;;;5122410;27;20031;-77
2022/07/22 06:20:21;;;;;;;4.15;1.40;;;;;;;;;;5139819;27;20027;-76
2022/07/22 06:22:47;;;;;;;1.45;1.25;;;;;;;;;;5102433;28;20035;-76
2022/07/22 06:25:13;;;;;;;2.83;1.63;;;;;;;;;;5119128;28;20408;-77
2022/07/22 06:27:38;;;;;;;4.40;1.38;;;;;;;;;;5102318;28;20024;-77
2022/07/22 06:30:06;;;;;;;3.70;1.90;;;;;;;;;;5118795;28;20024;-77
2022/07/22 06:32:32;;;;;;;5.03;1.80;;;;;;;;;;5118788;28;20119;-77
2022/07/22 06:34:58;;;;;;;6.28;1.40;;;;;;;;;;5119081;28;20027;-76
2022/07/22 06:37:23;;;;;;;1.50;1.27;;;;;;;;;;5119076;28;20076;-76
2022/07/22 06:39:49;;;;;;;3.25;2.10;;;;;;;;;;5118742;28;20517;-76
2022/07/22 06:42:17;;;;;;;4.93;1.60;;;;;;;;;;5118892;28;20035;-76
2022/07/22 06:45:02;;;;;;;2.17;1.63;;;;;;;;;;5119017;28;20050;-76
2022/07/22 06:47:46;;;;;;;3.75;1.70;;;;;;;;;;5119701;28;20090;-77
2022/07/22 06:50:14;;;;;;;3.88;1.63;;;;;;;;;;5118832;28;20034;-77
2022/07/22 06:52:41;;;;;;;1.92;1.52;;;;;;;;;;5137880;27;20122;-76
2022/07/22 06:55:07;;;;;;;1.25;1.08;;;;;;;;;;5121966;27;20031;-76
2022/07/22 06:57:37;;;;;;;3.45;1.50;;;;;;;;;;5121893;27;20083;-76
2022/07/22 07:00:07;;;;;;;4.95;1.42;;;;;;;;;;5139389;27;20031;-77
2022/07/22 07:02:36;;;;;;;1.95;1.40;;;;;;;;;;5122695;27;20452;-76
2022/07/22 07:05:03;;;;;;;1.92;1.33;;;;;;;;;;5122531;27;20042;-77
2022/07/22 07:07:28;;;;;;;3.60;1.60;;;;;;;;;;5122131;27;20027;-77
2022/07/22 07:09:55;;;;;;;2.22;1.65;;;;;;;;;;5139107;27;20086;-77
2022/07/22 07:12:37;;;;;;;4.45;1.20;;;;;;;;;;5124274;27;20027;-77
2022/07/22 07:15:08;;;;;;;1.42;1.33;;;;;;;;;;5138986;27;20043;-76
2022/07/22 07:17:34;;;;;;;2.03;1.40;;;;;;;;;;5121789;27;20377;-77
2022/07/22 07:20:04;;;;;;;2.22;1.50;;;;;;;;;;5120773;27;20524;-77
2022/07/22 07:22:29;;;;;;;1.70;1.33;;;;;;;;;;5118820;27;20372;-77
2022/07/22 07:24:54;;;;;;;3.00;1.40;;;;;;;;;;5135678;27;20491;-78
2022/07/22 07:27:20;;;;;;;3.42;1.17;;;;;;;;;;5118800;27;20125;-78
2022/07/22 07:29:49;;;;;;;2.13;1.15;;;;;;;;;;5118853;27;20027;-77
2022/07/22 07:32:17;;;;;;;2.75;1.10;;;;;;;;;;5128308;27;20556;-79
2022/07/22 07:34:42;;;;;;;5.85;1.55;;;;;;;;;;5122157;27;20092;-80
2022/07/22 07:37:08;;;;;;;1.42;1.20;;;;;;;;;;5127176;27;20043;-79
2022/07/22 07:39:34;;;;;;;2.22;1.27;;;;;;;;;;5128713;27;20031;-80
2022/07/22 07:41:59;;;;;;;2.33;1.60;;;;;;;;;;5129238;27;20051;-78
2022/07/22 07:44:24;;;;;;;2.33;1.30;;;;;;;;;;5144832;27;20045;-79
2022/07/22 07:46:50;;;;;;;2.30;1.33;;;;;;;;;;5126690;27;20030;-79
2022/07/22 07:49:15;;;;;;;1.20;1.10;;;;;;;;;;5126829;27;20034;-80
2022/07/22 07:51:41;;;;;;;4.30;1.60;;;;;;;;;;5144649;27;20031;-79
2022/07/22 07:54:06;;;;;;;1.98;1.60;;;;;;;;;;5145315;27;20425;-78
2022/07/22 07:56:32;;;;;;;3.35;1.73;;;;;;;;;;5142270;27;20035;-79
2022/07/22 07:58:58;;;;;;;2.50;1.20;;;;;;;;;;5121149;27;20044;-78
2022/07/22 08:01:23;;;;;;;3.00;1.60;;;;;;;;;;5137340;27;20023;-78
2022/07/22 08:03:49;;;;;;;1.90;1.63;;;;;;;;;;5124370;27;20103;-79
2022/07/22 08:06:15;;;;;;;4.18;1.45;;;;;;;;;;5125372;27;20027;-79
2022/07/22 08:08:41;;;;;;;1.70;1.40;;;;;;;;;;5129860;27;20403;-80
2022/07/22 08:11:15;;;;;;;1.65;1.30;;;;;;;;;;5142166;27;20023;-79
2022/07/22 08:13:53;;;;;;;3.38;1.58;;;;;;;;;;5140169;27;20087;-79
2022/07/22 08:16:48;;;;;;;1.40;1.30;;;;;;;;;;5094895;28;20036;-77
2022/07/22 08:19:13;;;;;;;2.50;1.40;;;;;;;;;;5114217;28;20023;-77
2022/07/22 08:21:41;;;;;;;3.15;1.70;;;;;;;;;;5114400;28;20558;-77
2022/07/22 08:24:18;;;;;;;5.28;1.60;;;;;;;;;;5114226;28;20037;-77
2022/07/22 08:26:44;;;;;;;6.93;1.92;;;;;;;;;;5096875;28;20122;-77
2022/07/22 08:29:09;;;;;;;5.20;2.22;;;;;;;;;;5113987;28;20043;-76
2022/07/22 08:31:36;;;;;;;4.88;1.52;;;;;;;;;;5113480;28;20508;-77
2022/07/22 08:34:05;;;;;;;2.45;1.85;;;;;;;;;;5097705;28;20027;-77
2022/07/22 08:36:31;;;;;;;2.78;1.77;;;;;;;;;;5113912;28;20519;-77
2022/07/22 08:38:57;;;;;;;1.65;1.40;;;;;;;;;;5097231;28;20023;-77
2022/07/22 08:41:23;;;;;;;5.97;1.80;;;;;;;;;;5113503;28;20059;-77
2022/07/22 08:43:50;;;;;;;1.88;1.60;;;;;;;;;;5096756;28;20028;-77
2022/07/22 08:46:16;;;;;;;3.70;2.03;;;;;;;;;;5105883;27;20415;-77
2022/07/22 08:49:06;;;;;;;3.17;1.77;;;;;;;;;;5134371;27;20027;-77
2022/07/22 08:52:01;;;;;;;2.67;1.80;;;;;;;;;;5115805;27;20043;-78
2022/07/22 08:54:34;;;;;;;3.45;1.77;;;;;;;;;;5119115;27;20200;-79
2022/07/22 08:57:00;;;;;;;3.83;2.00;;;;;;;;;;5134731;27;20118;-77
2022/07/22 08:59:26;;;;;;;2.63;1.88;;;;;;;;;;5119635;27;20067;-79
2022/07/22 09:02:06;;;;;;;7.50;1.83;;;;;;;;;;5118170;27;20092;-77
2022/07/22 09:04:54;;;;;;;2.33;1.75;;;;;;;;;;5134844;27;20023;-78
2022/07/22 09:07:28;;;;;;;7.68;1.70;;;;;;;;;;5118222;27;20072;-78
2022/07/22 09:09:57;;;;;;;2.70;1.70;;;;;;;;;;5118645;27;20446;-77
2022/07/22 09:12:50;;;;;;;6.22;1.90;;;;;;;;;;5136324;27;20075;-79
2022/07/22 09:15:46;;;;;;;4.03;1.48;;;;;;;;;;5130930;27;20035;-78
2022/07/22 09:19:05;;;;;;;2.55;1.40;;;;;;;;;;5113729;28;20036;-77
2022/07/22 09:21:55;;;;;;;2.88;1.45;;;;;;;;;;5114368;28;20188;-78
2022/07/22 09:24:28;;;;;;;2.00;1.40;;;;;;;;;;5097897;28;20070;-75
2022/07/22 09:26:57;;;;;;;2.00;1.20;;;;;;;;;;5096223;28;20477;-75
2022/07/22 09:29:49;;;;;;;1.73;1.27;;;;;;;;;;5099072;28;20031;-75
2022/07/22 09:32:16;;;;;;;2.97;1.33;;;;;;;;;;5096179;28;20080;-75
2022/07/22 09:35:01;;;;;;;3.00;1.75;;;;;;;;;;5113380;28;20184;-75
2022/07/22 09:37:27;;;;;;;6.68;2.03;;;;;;;;;;5112603;28;20043;-75
2022/07/22 09:39:52;;;;;;;2.42;1.45;;;;;;;;;;5112559;28;20065;-74
2022/07/22 09:42:18;;;;;;;1.95;1.38;;;;;;;;;;5112316;28;20500;-73
2022/07/22 09:44:46;;;;;;;4.18;1.27;;;;;;;;;;5112036;28;20027;-74
2022/07/22 09:47:29;;;;;;;2.67;1.50;;;;;;;;;;5112518;28;20037;-74
2022/07/22 09:50:29;;;;;;;2.80;1.55;;;;;;;;;;5112523;27;20035;-73
2022/07/22 09:53:14;;;;;;;1.17;1.10;;;;;;;;;;5134655;27;20050;-73
2022/07/22 09:55:55;;;;;;;6.88;1.80;;;;;;;;;;5116401;27;20400;-74
2022/07/22 09:58:20;;;;;;;2.03;1.42;;;;;;;;;;5115674;27;20031;-74
2022/07/22 10:00:47;;;;;;;3.15;1.50;;;;;;;;;;5134121;27;20079;-73
2022/07/22 10:03:23;;;;;;;1.75;1.40;;;;;;;;;;5133309;27;20027;-75
2022/07/22 10:05:49;;;;;;;6.85;1.90;;;;;;;;;;5132828;27;20027;-75
2022/07/22 10:08:15;;;;;;;2.10;1.33;;;;;;;;;;5133038;28;20042;-74
2022/07/22 10:10:40;;;;;;;4.03;1.40;;;;;;;;;;5132797;28;20020;-76
2022/07/22 10:13:07;;;;;;;2.83;1.38;;;;;;;;;;5133077;28;20031;-76
2022/07/22 10:15:34;;;;;;;2.30;1.42;;;;;;;;;;5131199;27;20062;-75
2022/07/22 10:18:06;;;;;;;2.40;1.20;;;;;;;;;;5129156;27;21895;-75
2022/07/22 10:20:33;;;;;;;2.20;1.42;;;;;;;;;;5140609;27;20048;-75
2022/07/22 10:23:10;;;;;;;4.43;1.70;;;;;;;;;;5095631;28;20569;-74
2022/07/22 10:25:58;;;;;;;2.13;1.55;;;;;;;;;;5111802;28;20058;-75
2022/07/22 10:28:27;;;;;;;10.63;2.00;;;;;;;;;;5095328;28;20031;-77
2022/07/22 10:30:54;;;;;;;2.80;1.50;;;;;;;;;;5112419;28;20046;-77
2022/07/22 10:33:21;;;;;;;3.95;1.95;;;;;;;;;;5112635;28;20027;-81
2022/07/22 10:35:59;;;;;;;3.58;1.70;;;;;;;;;;5113674;28;20116;-77
2022/07/22 10:38:25;;;;;;;2.92;1.55;;;;;;;;;;5113718;28;20027;-81
2022/07/22 10:40:55;;;;;;;2.85;1.45;;;;;;;;;;5095970;28;20108;-77
2022/07/22 10:43:26;;;;;;;5.13;1.58;;;;;;;;;;5095629;28;20027;-77
2022/07/22 10:46:02;;;;;;;2.70;1.50;;;;;;;;;;5118026;27;20079;-77
2022/07/22 10:48:29;;;;;;;2.55;1.48;;;;;;;;;;5114646;28;20031;-75
2022/07/22 10:51:04;;;;;;;2.20;1.38;;;;;;;;;;5133106;27;20060;-75
2022/07/22 10:53:46;;;;;;;2.50;1.40;;;;;;;;;;5131518;27;20042;-75
2022/07/22 10:56:29;;;;;;;1.67;1.27;;;;;;;;;;5118289;27;20468;-74
2022/07/22 10:58:58;;;;;;;3.25;1.80;;;;;;;;;;5119071;27;20087;-74
2022/07/22 11:01:29;;;;;;;2.75;1.55;;;;;;;;;;5137416;27;20142;-75
2022/07/22 11:03:56;;;;;;;2.40;1.63;;;;;;;;;;5138601;27;20031;-78
2022/07/22 11:06:26;;;;;;;2.95;1.55;;;;;;;;;;5137086;27;20031;-77
2022/07/22 11:08:58;;;;;;;3.78;1.80;;;;;;;;;;5136149;27;20059;-75
2022/07/22 11:11:38;;;;;;;3.30;1.50;;;;;;;;;;5135861;27;20582;-75
2022/07/22 11:14:13;;;;;;;2.88;1.92;;;;;;;;;;5117647;27;20031;-75
2022/07/22 11:16:39;;;;;;;1.70;1.58;;;;;;;;;;5135360;27;20035;-75
2022/07/22 11:19:04;;;;;;;3.75;1.65;;;;;;;;;;5118679;27;20030;-74
2022/07/22 11:21:32;;;;;;;3.08;1.83;;;;;;;;;;5136010;27;20079;-75
2022/07/22 11:24:03;;;;;;;2.05;1.70;;;;;;;;;;5118608;27;20484;-75
2022/07/22 11:26:46;;;;;;;1.58;1.35;;;;;;;;;;5117880;27;20400;-75
2022/07/22 11:29:30;;;;;;;2.53;1.60;;;;;;;;;;5135759;27;20369;-75
2022/07/22 11:31:57;;;;;;;2.90;1.77;;;;;;;;;;5118246;27;20122;-75
2022/07/22 11:34:24;;;;;;;2.42;1.73;;;;;;;;;;5136903;27;20058;-75
2022/07/22 11:36:51;;;;;;;1.58;1.35;;;;;;;;;;5135581;27;20031;-75
2022/07/22 11:39:22;;;;;;;2.05;1.58;;;;;;;;;;5135501;27;20031;-75
2022/07/22 11:41:49;;;;;;;5.90;2.10;;;;;;;;;;5136158;27;20039;-77
2022/07/22 11:44:20;;;;;;;5.55;1.63;;;;;;;;;;5136694;27;20052;-77
2022/07/22 11:46:46;;;;;;;2.92;1.40;;;;;;;;;;5134567;27;20027;-77
2022/07/22 11:49:15;;;;;;;6.35;1.40;;;;;;;;;;5118021;27;20031;-77
2022/07/22 11:51:40;;;;;;;5.95;1.50;;;;;;;;;;5118402;27;20042;-77
2022/07/22 11:54:06;;;;;;;6.05;1.52;;;;;;;;;;5117650;27;20038;-77
2022/07/22 11:56:32;;;;;;;1.65;1.45;;;;;;;;;;5117802;27;20414;-77
2022/07/22 11:59:01;;;;;;;5.50;1.83;;;;;;;;;;5135328;27;20035;-77
2022/07/22 12:01:28;;;;;;;1.58;1.48;;;;;;;;;;5136278;27;20035;-77
2022/07/22 12:04:02;;;;;;;1.60;1.50;;;;;;;;;;5117914;27;20130;-77
2022/07/22 12:06:29;;;;;;;3.00;1.30;;;;;;;;;;5116901;27;20100;-77
2022/07/22 12:09:01;;;;;;;4.97;1.60;;;;;;;;;;5136210;27;20034;-77
2022/07/22 12:11:27;;;;;;;2.40;1.58;;;;;;;;;;5134942;27;20027;-77
2022/07/22 12:13:53;;;;;;;1.98;1.48;;;;;;;;;;5117595;27;20035;-77
2022/07/22 12:16:27;;;;;;;4.32;1.73;;;;;;;;;;5134982;27;20031;-77
2022/07/22 12:18:58;;;;;;;2.75;1.90;;;;;;;;;;5135126;27;20046;-77
2022/07/22 12:21:26;;;;;;;3.03;1.98;;;;;;;;;;5135663;27;20035;-77
2022/07/22 12:23:53;;;;;;;3.10;1.83;;;;;;;;;;5117870;27;20491;-77
2022/07/22 12:26:19;;;;;;;2.63;1.60;;;;;;;;;;5117268;27;20502;-77
2022/07/22 12:28:45;;;;;;;4.57;2.10;;;;;;;;;;5117252;27;20031;-77
2022/07/22 12:31:10;;;;;;;2.25;1.80;;;;;;;;;;5134550;27;20043;-77
2022/07/22 12:33:36;;;;;;;6.10;2.00;;;;;;;;;;5134600;27;20117;-77
2022/07/22 12:36:07;;;;;;;2.83;1.70;;;;;;;;;;5134090;27;20042;-77
2022/07/22 12:38:32;;;;;;;2.65;2.00;;;;;;;;;;5117509;27;20046;-77
2022/07/22 12:41:21;;;;;;;5.65;1.95;;;;;;;;;;5134238;27;20035;-77
2022/07/22 12:43:46;;;;;;;3.97;1.65;;;;;;;;;;5117620;27;20123;-77
2022/07/22 12:46:12;;;;;;;5.63;2.00;;;;;;;;;;5134012;27;20540;-77
2022/07/22 12:48:37;;;;;;;3.55;2.00;;;;;;;;;;5134284;27;20035;-77
2022/07/22 12:51:03;;;;;;;4.65;1.70;;;;;;;;;;5116191;27;20046;-77
2022/07/22 12:53:29;;;;;;;1.80;1.60;;;;;;;;;;5118259;27;20031;-77
2022/07/22 12:56:00;;;;;;;4.05;2.08;;;;;;;;;;5121333;27;20027;-80
2022/07/22 12:58:31;;;;;;;3.63;1.95;;;;;;;;;;5136735;27;20118;-78
2022/07/22 13:00:58;;;;;;;1.83;1.70;;;;;;;;;;5135289;27;20035;-77
2022/07/22 13:03:28;;;;;;;2.88;1.80;;;;;;;;;;5118430;27;20088;-78
2022/07/22 13:05:55;;;;;;;4.40;2.13;;;;;;;;;;5134366;27;20034;-77
2022/07/22 13:08:22;;;;;;;2.72;1.98;;;;;;;;;;5117916;27;20439;-78
2022/07/22 13:10:54;;;;;;;3.28;1.70;;;;;;;;;;5118200;27;20087;-77
2022/07/22 13:13:21;;;;;;;2.45;1.90;;;;;;;;;;5134780;27;20046;-77
2022/07/22 13:15:47;;;;;;;4.32;2.28;;;;;;;;;;5134735;27;20038;-77
2022/07/22 13:18:13;;;;;;;4.57;2.45;;;;;;;;;;5133986;27;20046;-77
2022/07/22 13:20:38;;;;;;;3.85;2.00;;;;;;;;;;5117413;27;20035;-77
2022/07/22 13:23:04;;;;;;;3.88;2.10;;;;;;;;;;5117873;27;20023;-77
2022/07/22 13:25:30;;;;;;;2.50;2.20;;;;;;;;;;5135813;27;20031;-78
2022/07/22 13:27:56;;;;;;;4.53;2.53;;;;;;;;;;5119229;27;20130;-78
2022/07/22 13:30:21;;;;;;;5.00;2.58;;;;;;;;;;5136519;27;20070;-78
2022/07/22 13:32:47;;;;;;;3.67;2.53;;;;;;;;;;5118638;27;20400;-78
2022/07/22 13:35:12;;;;;;;2.95;2.65;;;;;;;;;;5134192;27;20158;-77
2022/07/22 13:37:38;;;;;;;6.70;2.50;;;;;;;;;;5133156;27;20401;-77
2022/07/22 13:40:04;;;;;;;4.82;2.45;;;;;;;;;;5133529;27;20459;-78
2022/07/22 13:42:29;;;;;;;6.88;2.40;;;;;;;;;;5134992;27;20031;-78
2022/07/22 13:44:55;;;;;;;3.53;2.70;;;;;;;;;;5133211;27;20035;-78
2022/07/22 13:47:20;;;;;;;4.15;2.65;;;;;;;;;;5123809;27;20031;-79
2022/07/22 13:49:46;;;;;;;3.13;2.70;;;;;;;;;;5115819;28;20393;-80
2022/07/22 13:52:12;;;;;;;3.97;2.30;;;;;;;;;;5122466;27;20051;-77
2022/07/22 13:54:38;;;;;;;6.07;4.45;;;;;;;;;;5115497;27;20058;-77
2022/07/22 13:57:05;;;;;;;5.30;2.70;;;;;;;;;;5131804;27;20585;-76
2022/07/22 13:59:31;;;;;;;10.80;2.83;;;;;;;;;;5132755;27;20023;-76
2022/07/22 14:01:57;;;;;;;11.57;2.75;;;;;;;;;;5115327;28;20411;-76
2022/07/22 14:04:22;;;;;;;4.43;2.80;;;;;;;;;;5131248;27;20039;-77
2022/07/22 14:06:48;;;;;;;3.50;3.20;;;;;;;;;;5128967;27;20035;-76
2022/07/22 14:09:13;;;;;;;4.90;2.28;;;;;;;;;;5110920;28;20447;-76
2022/07/22 14:11:38;;;;;;;5.47;2.20;;;;;;;;;;5113428;28;20059;-77
2022/07/22 14:14:06;;;;;;;4.05;2.15;;;;;;;;;;5125768;27;20008;-76
2022/07/22 14:16:35;;;;;;;5.85;2.50;;;;;;;;;;5125527;27;20035;-84
2022/07/22 14:19:09;;;;;;;3.97;2.47;;;;;;;;;;5084511;28;20094;-79
2022/07/22 14:21:36;;;;;;;5.03;2.63;;;;;;;;;;5110575;28;20028;-78
2022/07/22 14:24:03;;;;;;;6.60;3.40;;;;;;;;;;5122436;27;20128;-78
2022/07/22 14:26:29;;;;;;;4.15;2.28;;;;;;;;;;5119174;28;20403;-78
2022/07/22 14:28:54;;;;;;;5.05;2.33;;;;;;;;;;5114798;27;20104;-77
2022/07/22 14:31:20;;;;;;;6.43;2.95;;;;;;;;;;5123226;27;20465;-77
2022/07/22 14:33:47;;;;;;;7.05;2.53;;;;;;;;;;5126119;27;20032;-79
2022/07/22 14:36:13;;;;;;;3.92;2.47;;;;;;;;;;5104694;28;20043;-78
2022/07/22 14:38:39;;;;;;;5.50;3.13;;;;;;;;;;5105478;28;20036;-77
2022/07/22 14:41:07;;;;;;;6.80;2.92;;;;;;;;;;5138478;27;20095;-78
2022/07/22 14:43:33;;;;;;;5.18;2.78;;;;;;;;;;5132368;27;20039;-79
2022/07/22 14:46:00;;;;;;;4.35;2.45;;;;;;;;;;5123612;27;20027;-80
2022/07/22 14:48:26;;;;;;;4.07;2.10;;;;;;;;;;5120391;27;20357;-79
2022/07/22 14:50:52;;;;;;;6.32;2.50;;;;;;;;;;5139274;27;20038;-77